sensor_id;sensor_type;location;lat;lon;timestamp;temperature;humidity
73643;DHT22;61938;48.652;9.292;2024-01-15T00:01:46;-2.60;99.90
73643;DHT22;61938;48.652;9.292;2024-01-15T00:04:12;-2.40;99.90
73643;DHT22;61938;48.652;9.292;2024-01-15T00:06:37;-2.40;99.90
73643;DHT22;61938;48.652;9.292;2024-01-15T00:09:03;-2.50;99.90
73643;DHT22;61938;48.652;9.292;2024-01-15T00:11:28;-2.50;99.90
73643;DHT22;61938;48.652;9.292;2024-01-15T00:13:54;-2.50;99.90
73643;DHT22;61938;48.652;9.292;2024-01-15T00:16:19;-2.50;99.90
73643;DHT22;61938;48.652;9.292;2024-01-15T00:18:45;-2.40;99.90
73643;DHT22;61938;48.652;9.292;2024-01-15T00:21:10;-2.50;99.90
73643;DHT22;61938;48.652;9.292;2024-01-15T00:23:36;-2.30;99.90
73643;DHT22;61938;48.652;9.292;2024-01-15T00:26:01;-2.10;99.90
73643;DHT22;61938;48.652;9.292;2024-01-15T00:28:27;-2.40;99.90
73643;DHT22;61938;48.652;9.292;2024-01-15T00:30:52;-2.40;99.90
73643;DHT22;61938;48.652;9.292;2024-01-15T00:33:18;-2.20;99.90
73643;DHT22;61938;48.652;9.292;2024-01-15T00:35:44;-2.50;99.90
73643;DHT22;61938;48.652;9.292;2024-01-15T00:38:09;-2.00;99.90
73643;DHT22;61938;48.652;9.292;2024-01-15T00:40:35;-2.10;99.90
73643;DHT22;61938;48.652;9.292;2024-01-15T00:43:00;-2.10;99.90
73643;DHT22;61938;48.652;9.292;2024-01-15T00:45:27;-2.10;99.90
73643;DHT22;61938;48.652;9.292;2024-01-15T00:47:53;-2.20;99.90
73643;DHT22;61938;48.652;9.292;2024-01-15T00:50:18;-2.10;99.90
73643;DHT22;61938;48.652;9.292;2024-01-15T00:52:44;-2.10;99.90
73643;DHT22;61938;48.652;9.292;2024-01-15T00:55:09;-2.00;99.90
73643;DHT22;61938;48.652;9.292;2024-01-15T00:57:35;-2.10;99.90
73643;DHT22;61938;48.652;9.292;2024-01-15T01:00:00;-4.00;99.90
73643;DHT22;61938;48.652;9.292;2024-01-15T01:02:26;-2.00;99.90
73643;DHT22;61938;48.652;9.292;2024-01-15T01:04:51;-2.00;99.90
73643;DHT22;61938;48.652;9.292;2024-01-15T01:07:17;-1.90;99.90
73643;DHT22;61938;48.652;9.292;2024-01-15T01:09:43;-1.90;99.90
73643;DHT22;61938;48.652;9.292;2024-01-15T01:12:09;-2.00;99.90
73643;DHT22;61938;48.652;9.292;2024-01-15T01:14:35;-1.90;99.90
73643;DHT22;61938;48.652;9.292;2024-01-15T01:17:00;-2.00;99.90
73643;DHT22;61938;48.652;9.292;2024-01-15T01:19:26;-1.90;99.90
73643;DHT22;61938;48.652;9.292;2024-01-15T01:21:51;-1.90;99.90
73643;DHT22;61938;48.652;9.292;2024-01-15T01:24:17;-2.00;99.90
73643;DHT22;61938;48.652;9.292;2024-01-15T01:26:42;-1.80;99.90
73643;DHT22;61938;48.652;9.292;2024-01-15T01:29:08;-1.90;99.90
73643;DHT22;61938;48.652;9.292;2024-01-15T01:31:33;-1.90;99.90
73643;DHT22;61938;48.652;9.292;2024-01-15T01:33:59;-1.60;99.90
73643;DHT22;61938;48.652;9.292;2024-01-15T01:36:24;-1.60;99.90
73643;DHT22;61938;48.652;9.292;2024-01-15T01:38:50;-1.90;99.90
73643;DHT22;61938;48.652;9.292;2024-01-15T01:41:15;-2.00;99.90
73643;DHT22;61938;48.652;9.292;2024-01-15T01:43:41;-1.90;99.90
73643;DHT22;61938;48.652;9.292;2024-01-15T01:46:07;-1.80;99.90
73643;DHT22;61938;48.652;9.292;2024-01-15T01:48:33;-1.80;99.90
73643;DHT22;61938;48.652;9.292;2024-01-15T01:51:00;-1.80;99.90
73643;DHT22;61938;48.652;9.292;2024-01-15T01:53:27;-1.80;99.90
73643;DHT22;61938;48.652;9.292;2024-01-15T01:55:54;-1.90;99.90
73643;DHT22;61938;48.652;9.292;2024-01-15T01:58:21;-1.70;99.90
73643;DHT22;61938;48.652;9.292;2024-01-15T02:00:47;-1.80;99.90
73643;DHT22;61938;48.652;9.292;2024-01-15T02:03:13;-1.70;99.90
73643;DHT22;61938;48.652;9.292;2024-01-15T02:05:40;-1.70;99.90
73643;DHT22;61938;48.652;9.292;2024-01-15T02:08:06;-1.70;99.90
73643;DHT22;61938;48.652;9.292;2024-01-15T02:10:31;-1.50;99.90
73643;DHT22;61938;48.652;9.292;2024-01-15T02:12:57;-1.70;99.90
73643;DHT22;61938;48.652;9.292;2024-01-15T02:15:23;-1.70;99.90
73643;DHT22;61938;48.652;9.292;2024-01-15T02:18:03;-1.50;99.90
73643;DHT22;61938;48.652;9.292;2024-01-15T02:20:29;-1.70;99.90
73643;DHT22;61938;48.652;9.292;2024-01-15T02:23:22;-1.70;99.90
73643;DHT22;61938;48.652;9.292;2024-01-15T02:25:47;-1.70;99.90
73643;DHT22;61938;48.652;9.292;2024-01-15T02:28:17;-1.80;99.90
73643;DHT22;61938;48.652;9.292;2024-01-15T02:30:43;-1.60;99.90
73643;DHT22;61938;48.652;9.292;2024-01-15T02:33:10;-1.60;99.90
73643;DHT22;61938;48.652;9.292;2024-01-15T02:35:36;-1.70;99.90
73643;DHT22;61938;48.652;9.292;2024-01-15T02:38:02;-1.60;99.90
73643;DHT22;61938;48.652;9.292;2024-01-15T02:40:28;-1.60;99.90
73643;DHT22;61938;48.652;9.292;2024-01-15T02:42:54;-1.60;99.90
73643;DHT22;61938;48.652;9.292;2024-01-15T02:45:20;-1.50;99.90
73643;DHT22;61938;48.652;9.292;2024-01-15T02:47:45;-1.90;99.90
73643;DHT22;61938;48.652;9.292;2024-01-15T02:50:11;-1.70;99.90
73643;DHT22;61938;48.652;9.292;2024-01-15T02:52:36;-1.60;99.90
73643;DHT22;61938;48.652;9.292;2024-01-15T02:55:02;-1.60;99.90
73643;DHT22;61938;48.652;9.292;2024-01-15T02:57:28;-1.60;99.90
73643;DHT22;61938;48.652;9.292;2024-01-15T02:59:53;-1.70;99.90
73643;DHT22;61938;48.652;9.292;2024-01-15T03:02:19;-1.50;99.90
73643;DHT22;61938;48.652;9.292;2024-01-15T03:04:45;-1.70;99.90
73643;DHT22;61938;48.652;9.292;2024-01-15T03:07:10;-1.60;99.90
73643;DHT22;61938;48.652;9.292;2024-01-15T03:09:36;-1.60;99.90
73643;DHT22;61938;48.652;9.292;2024-01-15T03:12:01;-1.60;99.90
73643;DHT22;61938;48.652;9.292;2024-01-15T03:14:27;-1.60;99.90
73643;DHT22;61938;48.652;9.292;2024-01-15T03:16:53;-1.60;99.90
73643;DHT22;61938;48.652;9.292;2024-01-15T03:19:19;-1.60;99.90
73643;DHT22;61938;48.652;9.292;2024-01-15T03:21:44;-1.60;99.90
73643;DHT22;61938;48.652;9.292;2024-01-15T03:24:10;-1.50;99.90
73643;DHT22;61938;48.652;9.292;2024-01-15T03:26:35;-1.60;99.90
73643;DHT22;61938;48.652;9.292;2024-01-15T03:29:01;-1.50;99.90
73643;DHT22;61938;48.652;9.292;2024-01-15T03:31:26;-1.60;99.90
73643;DHT22;61938;48.652;9.292;2024-01-15T03:33:52;-1.60;99.90
73643;DHT22;61938;48.652;9.292;2024-01-15T03:36:17;-1.50;99.90
73643;DHT22;61938;48.652;9.292;2024-01-15T03:38:43;-1.40;99.90
73643;DHT22;61938;48.652;9.292;2024-01-15T03:41:09;-1.50;99.90
73643;DHT22;61938;48.652;9.292;2024-01-15T03:43:34;-1.50;99.90
73643;DHT22;61938;48.652;9.292;2024-01-15T03:46:00;-1.50;99.90
73643;DHT22;61938;48.652;9.292;2024-01-15T03:48:25;-1.60;99.90
73643;DHT22;61938;48.652;9.292;2024-01-15T03:50:51;-1.50;99.90
73643;DHT22;61938;48.652;9.292;2024-01-15T03:53:16;-1.60;99.90
73643;DHT22;61938;48.652;9.292;2024-01-15T03:55:42;-1.50;99.90
73643;DHT22;61938;48.652;9.292;2024-01-15T03:58:08;-1.50;99.90
73643;DHT22;61938;48.652;9.292;2024-01-15T04:00:34;-1.50;99.90
73643;DHT22;61938;48.652;9.292;2024-01-15T04:02:59;-1.50;99.90
73643;DHT22;61938;48.652;9.292;2024-01-15T04:05:25;-1.50;99.90
73643;DHT22;61938;48.652;9.292;2024-01-15T04:07:51;-1.50;99.90
73643;DHT22;61938;48.652;9.292;2024-01-15T04:10:17;-1.40;99.90
73643;DHT22;61938;48.652;9.292;2024-01-15T04:12:42;-1.40;99.90
73643;DHT22;61938;48.652;9.292;2024-01-15T04:15:08;-1.40;99.90
73643;DHT22;61938;48.652;9.292;2024-01-15T04:17:33;-1.40;99.90
73643;DHT22;61938;48.652;9.292;2024-01-15T04:19:59;-1.40;99.90
73643;DHT22;61938;48.652;9.292;2024-01-15T04:22:25;-1.40;99.90
73643;DHT22;61938;48.652;9.292;2024-01-15T04:24:51;-1.50;99.90
73643;DHT22;61938;48.652;9.292;2024-01-15T04:27:16;-1.30;99.90
73643;DHT22;61938;48.652;9.292;2024-01-15T04:29:42;-1.10;99.90
73643;DHT22;61938;48.652;9.292;2024-01-15T04:32:09;-1.10;99.90
73643;DHT22;61938;48.652;9.292;2024-01-15T04:34:35;-1.20;99.90
73643;DHT22;61938;48.652;9.292;2024-01-15T04:37:00;-1.30;99.90
73643;DHT22;61938;48.652;9.292;2024-01-15T04:39:26;-0.90;99.90
73643;DHT22;61938;48.652;9.292;2024-01-15T04:41:51;-1.20;99.90
73643;DHT22;61938;48.652;9.292;2024-01-15T04:44:17;-1.10;99.90
73643;DHT22;61938;48.652;9.292;2024-01-15T04:46:43;-1.20;99.90
73643;DHT22;61938;48.652;9.292;2024-01-15T04:49:09;-1.10;99.90
73643;DHT22;61938;48.652;9.292;2024-01-15T04:51:35;-1.20;99.90
73643;DHT22;61938;48.652;9.292;2024-01-15T04:54:01;-1.10;99.90
73643;DHT22;61938;48.652;9.292;2024-01-15T04:56:26;-1.20;99.90
73643;DHT22;61938;48.652;9.292;2024-01-15T04:58:52;-1.10;99.90
73643;DHT22;61938;48.652;9.292;2024-01-15T05:01:17;-1.10;99.90
73643;DHT22;61938;48.652;9.292;2024-01-15T05:03:43;-0.80;99.90
73643;DHT22;61938;48.652;9.292;2024-01-15T05:06:09;-1.00;99.90
73643;DHT22;61938;48.652;9.292;2024-01-15T05:08:35;-1.00;99.90
73643;DHT22;61938;48.652;9.292;2024-01-15T05:11:00;-1.00;99.90
73643;DHT22;61938;48.652;9.292;2024-01-15T05:13:26;0.00;99.90
73643;DHT22;61938;48.652;9.292;2024-01-15T05:15:52;-0.80;99.90
73643;DHT22;61938;48.652;9.292;2024-01-15T05:18:18;-0.90;99.90
73643;DHT22;61938;48.652;9.292;2024-01-15T05:20:43;-0.90;99.90
73643;DHT22;61938;48.652;9.292;2024-01-15T05:23:09;-1.00;99.90
73643;DHT22;61938;48.652;9.292;2024-01-15T05:25:35;-0.90;99.90
73643;DHT22;61938;48.652;9.292;2024-01-15T05:28:01;-0.80;99.90
73643;DHT22;61938;48.652;9.292;2024-01-15T05:30:27;-1.00;99.90
73643;DHT22;61938;48.652;9.292;2024-01-15T05:32:53;-0.90;99.90
73643;DHT22;61938;48.652;9.292;2024-01-15T05:35:19;-1.00;99.90
73643;DHT22;61938;48.652;9.292;2024-01-15T05:37:45;-0.70;99.90
73643;DHT22;61938;48.652;9.292;2024-01-15T05:40:11;-0.70;99.90
73643;DHT22;61938;48.652;9.292;2024-01-15T05:42:38;-0.90;99.90
73643;DHT22;61938;48.652;9.292;2024-01-15T05:45:04;-0.90;99.90
73643;DHT22;61938;48.652;9.292;2024-01-15T05:47:30;-0.90;99.90
73643;DHT22;61938;48.652;9.292;2024-01-15T05:49:56;-0.90;99.90
73643;DHT22;61938;48.652;9.292;2024-01-15T05:52:22;-0.70;99.90
73643;DHT22;61938;48.652;9.292;2024-01-15T05:54:48;-1.00;99.90
73643;DHT22;61938;48.652;9.292;2024-01-15T05:57:13;-0.80;99.90
73643;DHT22;61938;48.652;9.292;2024-01-15T05:59:39;-0.90;99.90
73643;DHT22;61938;48.652;9.292;2024-01-15T06:02:04;-0.90;99.90
73643;DHT22;61938;48.652;9.292;2024-01-15T06:04:30;-0.90;99.90
73643;DHT22;61938;48.652;9.292;2024-01-15T06:06:55;-0.60;99.90
73643;DHT22;61938;48.652;9.292;2024-01-15T06:09:21;-0.80;99.90
73643;DHT22;61938;48.652;9.292;2024-01-15T06:11:46;-0.90;99.90
73643;DHT22;61938;48.652;9.292;2024-01-15T06:14:12;-0.90;99.90
73643;DHT22;61938;48.652;9.292;2024-01-15T06:16:37;-0.60;99.90
73643;DHT22;61938;48.652;9.292;2024-01-15T06:19:03;-0.90;99.90
73643;DHT22;61938;48.652;9.292;2024-01-15T06:21:28;-0.60;99.90
73643;DHT22;61938;48.652;9.292;2024-01-15T06:23:54;-0.80;99.90
73643;DHT22;61938;48.652;9.292;2024-01-15T06:26:22;-0.80;99.90
73643;DHT22;61938;48.652;9.292;2024-01-15T06:28:48;-0.80;99.90
73643;DHT22;61938;48.652;9.292;2024-01-15T06:31:13;-0.80;99.90
73643;DHT22;61938;48.652;9.292;2024-01-15T06:33:39;-0.70;99.90
73643;DHT22;61938;48.652;9.292;2024-01-15T06:36:05;-0.70;99.90
73643;DHT22;61938;48.652;9.292;2024-01-15T06:38:31;-0.80;99.90
73643;DHT22;61938;48.652;9.292;2024-01-15T06:40:56;-0.80;99.90
73643;DHT22;61938;48.652;9.292;2024-01-15T06:43:22;-0.80;99.90
73643;DHT22;61938;48.652;9.292;2024-01-15T06:45:47;-0.80;99.90
73643;DHT22;61938;48.652;9.292;2024-01-15T06:48:13;-0.80;99.90
73643;DHT22;61938;48.652;9.292;2024-01-15T06:50:44;-0.80;99.90
73643;DHT22;61938;48.652;9.292;2024-01-15T06:53:10;-0.70;99.90
73643;DHT22;61938;48.652;9.292;2024-01-15T06:55:36;-0.70;99.90
73643;DHT22;61938;48.652;9.292;2024-01-15T06:58:01;-0.70;99.90
73643;DHT22;61938;48.652;9.292;2024-01-15T07:00:27;-0.70;99.90
73643;DHT22;61938;48.652;9.292;2024-01-15T07:02:53;-0.60;99.90
73643;DHT22;61938;48.652;9.292;2024-01-15T07:05:20;-0.70;99.90
73643;DHT22;61938;48.652;9.292;2024-01-15T07:07:45;-0.40;99.90
73643;DHT22;61938;48.652;9.292;2024-01-15T07:10:11;-0.70;99.90
73643;DHT22;61938;48.652;9.292;2024-01-15T07:12:36;-0.70;99.90
73643;DHT22;61938;48.652;9.292;2024-01-15T07:15:02;-0.70;99.90
73643;DHT22;61938;48.652;9.292;2024-01-15T07:17:29;-0.70;99.90
73643;DHT22;61938;48.652;9.292;2024-01-15T07:19:56;-0.60;99.90
73643;DHT22;61938;48.652;9.292;2024-01-15T07:22:21;-0.70;99.90
73643;DHT22;61938;48.652;9.292;2024-01-15T07:24:47;-0.50;99.90
73643;DHT22;61938;48.652;9.292;2024-01-15T07:27:12;-0.70;99.90
73643;DHT22;61938;48.652;9.292;2024-01-15T07:29:40;-0.50;99.90
73643;DHT22;61938;48.652;9.292;2024-01-15T07:32:06;-0.70;99.90
73643;DHT22;61938;48.652;9.292;2024-01-15T07:34:33;-0.60;99.90
73643;DHT22;61938;48.652;9.292;2024-01-15T07:36:58;-0.60;99.90
73643;DHT22;61938;48.652;9.292;2024-01-15T07:39:24;-0.40;99.90
73643;DHT22;61938;48.652;9.292;2024-01-15T07:41:51;-0.60;99.90
73643;DHT22;61938;48.652;9.292;2024-01-15T07:44:16;-0.60;99.90
73643;DHT22;61938;48.652;9.292;2024-01-15T07:46:46;-0.60;99.90
73643;DHT22;61938;48.652;9.292;2024-01-15T07:49:12;-0.70;99.90
73643;DHT22;61938;48.652;9.292;2024-01-15T07:51:37;-0.60;99.90
73643;DHT22;61938;48.652;9.292;2024-01-15T07:54:03;-0.60;99.90
73643;DHT22;61938;48.652;9.292;2024-01-15T07:56:28;-0.60;99.90
73643;DHT22;61938;48.652;9.292;2024-01-15T07:58:54;-0.60;99.90
73643;DHT22;61938;48.652;9.292;2024-01-15T08:01:20;-0.50;99.90
73643;DHT22;61938;48.652;9.292;2024-01-15T08:03:45;-0.50;99.90
73643;DHT22;61938;48.652;9.292;2024-01-15T08:06:10;-0.40;99.90
73643;DHT22;61938;48.652;9.292;2024-01-15T08:08:37;-0.70;99.90
73643;DHT22;61938;48.652;9.292;2024-01-15T08:11:03;-0.50;99.90
73643;DHT22;61938;48.652;9.292;2024-01-15T08:13:28;-0.50;99.90
73643;DHT22;61938;48.652;9.292;2024-01-15T08:15:54;-0.60;99.90
73643;DHT22;61938;48.652;9.292;2024-01-15T08:18:19;-0.50;99.90
73643;DHT22;61938;48.652;9.292;2024-01-15T08:20:47;-0.50;99.90
73643;DHT22;61938;48.652;9.292;2024-01-15T08:23:12;-0.50;99.90
73643;DHT22;61938;48.652;9.292;2024-01-15T08:25:38;-0.60;99.90
73643;DHT22;61938;48.652;9.292;2024-01-15T08:28:03;-0.30;99.90
73643;DHT22;61938;48.652;9.292;2024-01-15T08:30:29;-0.40;99.90
73643;DHT22;61938;48.652;9.292;2024-01-15T08:32:55;-0.20;99.90
73643;DHT22;61938;48.652;9.292;2024-01-15T08:35:20;-0.40;99.90
73643;DHT22;61938;48.652;9.292;2024-01-15T08:37:50;-0.50;99.90
73643;DHT22;61938;48.652;9.292;2024-01-15T08:40:42;-0.40;99.90
73643;DHT22;61938;48.652;9.292;2024-01-15T08:43:10;-0.40;99.90
73643;DHT22;61938;48.652;9.292;2024-01-15T08:45:36;0.20;99.90
73643;DHT22;61938;48.652;9.292;2024-01-15T08:48:01;-0.50;99.90
73643;DHT22;61938;48.652;9.292;2024-01-15T08:50:29;-0.40;99.90
73643;DHT22;61938;48.652;9.292;2024-01-15T08:52:55;-0.40;99.90
73643;DHT22;61938;48.652;9.292;2024-01-15T08:55:21;-0.50;99.90
73643;DHT22;61938;48.652;9.292;2024-01-15T08:57:48;-0.30;99.90
73643;DHT22;61938;48.652;9.292;2024-01-15T09:00:14;-0.30;99.90
73643;DHT22;61938;48.652;9.292;2024-01-15T09:02:39;-0.30;99.90
73643;DHT22;61938;48.652;9.292;2024-01-15T09:05:05;-0.30;99.90
73643;DHT22;61938;48.652;9.292;2024-01-15T09:07:31;-0.30;99.90
73643;DHT22;61938;48.652;9.292;2024-01-15T09:09:56;-0.30;99.90
73643;DHT22;61938;48.652;9.292;2024-01-15T09:12:22;-0.20;99.90
73643;DHT22;61938;48.652;9.292;2024-01-15T09:14:47;-0.20;99.90
73643;DHT22;61938;48.652;9.292;2024-01-15T09:17:13;-0.20;99.90
73643;DHT22;61938;48.652;9.292;2024-01-15T09:19:38;-0.20;99.90
73643;DHT22;61938;48.652;9.292;2024-01-15T09:22:05;0.10;99.90
73643;DHT22;61938;48.652;9.292;2024-01-15T09:24:31;-0.10;99.90
73643;DHT22;61938;48.652;9.292;2024-01-15T09:26:56;-0.10;99.90
73643;DHT22;61938;48.652;9.292;2024-01-15T09:29:22;-0.10;99.90
73643;DHT22;61938;48.652;9.292;2024-01-15T09:31:49;0.00;99.90
73643;DHT22;61938;48.652;9.292;2024-01-15T09:34:15;-0.10;99.90
73643;DHT22;61938;48.652;9.292;2024-01-15T09:36:41;0.00;99.90
73643;DHT22;61938;48.652;9.292;2024-01-15T09:39:10;0.00;99.90
73643;DHT22;61938;48.652;9.292;2024-01-15T09:41:37;0.00;99.90
73643;DHT22;61938;48.652;9.292;2024-01-15T09:44:03;0.00;99.90
73643;DHT22;61938;48.652;9.292;2024-01-15T09:46:31;0.00;99.90
73643;DHT22;61938;48.652;9.292;2024-01-15T09:48:56;-0.10;99.90
73643;DHT22;61938;48.652;9.292;2024-01-15T09:51:24;0.00;99.90
73643;DHT22;61938;48.652;9.292;2024-01-15T09:53:50;0.10;99.90
73643;DHT22;61938;48.652;9.292;2024-01-15T09:56:15;0.10;99.90
73643;DHT22;61938;48.652;9.292;2024-01-15T09:58:41;0.10;99.90
73643;DHT22;61938;48.652;9.292;2024-01-15T10:01:08;0.10;99.90
73643;DHT22;61938;48.652;9.292;2024-01-15T10:03:33;0.20;99.90
73643;DHT22;61938;48.652;9.292;2024-01-15T10:05:59;0.40;99.90
73643;DHT22;61938;48.652;9.292;2024-01-15T10:08:25;0.10;99.90
73643;DHT22;61938;48.652;9.292;2024-01-15T10:10:51;0.30;99.90
73643;DHT22;61938;48.652;9.292;2024-01-15T10:13:17;0.40;99.90
73643;DHT22;61938;48.652;9.292;2024-01-15T10:15:45;0.10;99.90
73643;DHT22;61938;48.652;9.292;2024-01-15T10:18:12;0.10;99.90
73643;DHT22;61938;48.652;9.292;2024-01-15T10:20:39;0.50;99.90
73643;DHT22;61938;48.652;9.292;2024-01-15T10:23:05;0.30;99.90
73643;DHT22;61938;48.652;9.292;2024-01-15T10:25:30;0.30;99.90
73643;DHT22;61938;48.652;9.292;2024-01-15T10:28:03;0.40;99.90
73643;DHT22;61938;48.652;9.292;2024-01-15T10:30:30;0.30;99.90
73643;DHT22;61938;48.652;9.292;2024-01-15T10:33:01;0.40;99.90
73643;DHT22;61938;48.652;9.292;2024-01-15T10:35:31;0.50;99.90
73643;DHT22;61938;48.652;9.292;2024-01-15T10:37:57;0.50;99.90
73643;DHT22;61938;48.652;9.292;2024-01-15T10:40:23;0.50;99.90
73643;DHT22;61938;48.652;9.292;2024-01-15T10:42:48;0.40;99.90
73643;DHT22;61938;48.652;9.292;2024-01-15T10:45:14;0.50;99.90
73643;DHT22;61938;48.652;9.292;2024-01-15T10:47:43;0.50;99.90
73643;DHT22;61938;48.652;9.292;2024-01-15T10:50:09;0.60;99.90
73643;DHT22;61938;48.652;9.292;2024-01-15T10:52:36;0.50;99.90
73643;DHT22;61938;48.652;9.292;2024-01-15T10:55:03;0.60;99.90
73643;DHT22;61938;48.652;9.292;2024-01-15T10:57:30;0.60;99.90
73643;DHT22;61938;48.652;9.292;2024-01-15T10:59:55;0.60;99.90
73643;DHT22;61938;48.652;9.292;2024-01-15T11:02:21;0.60;99.90
73643;DHT22;61938;48.652;9.292;2024-01-15T11:04:47;0.60;99.90
73643;DHT22;61938;48.652;9.292;2024-01-15T11:07:13;0.60;99.90
73643;DHT22;61938;48.652;9.292;2024-01-15T11:09:39;0.60;99.90
73643;DHT22;61938;48.652;9.292;2024-01-15T11:12:13;0.60;99.90
73643;DHT22;61938;48.652;9.292;2024-01-15T11:14:49;0.60;99.90
73643;DHT22;61938;48.652;9.292;2024-01-15T11:17:16;0.60;99.90
73643;DHT22;61938;48.652;9.292;2024-01-15T11:22:47;0.70;99.90
73643;DHT22;61938;48.652;9.292;2024-01-15T11:25:22;0.80;99.90
73643;DHT22;61938;48.652;9.292;2024-01-15T11:27:50;0.90;99.90
73643;DHT22;61938;48.652;9.292;2024-01-15T11:30:17;0.70;99.90
73643;DHT22;61938;48.652;9.292;2024-01-15T11:32:43;0.70;99.90
73643;DHT22;61938;48.652;9.292;2024-01-15T11:35:10;0.70;99.90
73643;DHT22;61938;48.652;9.292;2024-01-15T11:40:37;0.80;99.90
73643;DHT22;61938;48.652;9.292;2024-01-15T11:43:03;0.80;99.90
73643;DHT22;61938;48.652;9.292;2024-01-15T11:45:30;0.90;99.90
73643;DHT22;61938;48.652;9.292;2024-01-15T11:48:12;0.80;99.90
73643;DHT22;61938;48.652;9.292;2024-01-15T11:50:47;0.80;99.90
73643;DHT22;61938;48.652;9.292;2024-01-15T11:53:18;0.80;99.90
73643;DHT22;61938;48.652;9.292;2024-01-15T11:55:46;0.80;99.90
73643;DHT22;61938;48.652;9.292;2024-01-15T11:58:14;0.80;99.90
73643;DHT22;61938;48.652;9.292;2024-01-15T12:00:42;0.90;99.90
73643;DHT22;61938;48.652;9.292;2024-01-15T12:03:08;0.90;99.90
73643;DHT22;61938;48.652;9.292;2024-01-15T12:05:39;0.90;99.90
73643;DHT22;61938;48.652;9.292;2024-01-15T12:08:05;0.90;99.90
73643;DHT22;61938;48.652;9.292;2024-01-15T12:10:40;1.60;99.90
73643;DHT22;61938;48.652;9.292;2024-01-15T12:13:13;1.00;99.90
73643;DHT22;61938;48.652;9.292;2024-01-15T12:15:39;1.00;99.90
73643;DHT22;61938;48.652;9.292;2024-01-15T12:18:09;1.00;99.90
73643;DHT22;61938;48.652;9.292;2024-01-15T12:20:35;0.90;99.90
73643;DHT22;61938;48.652;9.292;2024-01-15T12:23:01;0.90;99.90
73643;DHT22;61938;48.652;9.292;2024-01-15T12:25:31;0.90;99.90
73643;DHT22;61938;48.652;9.292;2024-01-15T12:27:58;0.90;99.90
73643;DHT22;61938;48.652;9.292;2024-01-15T12:30:26;0.90;99.90
73643;DHT22;61938;48.652;9.292;2024-01-15T12:32:52;0.90;99.90
73643;DHT22;61938;48.652;9.292;2024-01-15T12:35:17;0.90;99.90
73643;DHT22;61938;48.652;9.292;2024-01-15T12:37:43;0.90;99.90
73643;DHT22;61938;48.652;9.292;2024-01-15T12:40:10;0.90;99.90
73643;DHT22;61938;48.652;9.292;2024-01-15T12:42:42;0.80;99.90
73643;DHT22;61938;48.652;9.292;2024-01-15T12:45:09;0.90;99.90
73643;DHT22;61938;48.652;9.292;2024-01-15T12:47:39;0.80;99.90
73643;DHT22;61938;48.652;9.292;2024-01-15T12:50:12;1.00;99.90
73643;DHT22;61938;48.652;9.292;2024-01-15T12:52:41;0.80;99.90
73643;DHT22;61938;48.652;9.292;2024-01-15T12:55:08;0.90;99.90
73643;DHT22;61938;48.652;9.292;2024-01-15T12:57:37;0.90;99.90
73643;DHT22;61938;48.652;9.292;2024-01-15T13:00:03;0.80;99.90
73643;DHT22;61938;48.652;9.292;2024-01-15T13:02:34;0.80;99.90
73643;DHT22;61938;48.652;9.292;2024-01-15T13:05:00;0.70;99.90
73643;DHT22;61938;48.652;9.292;2024-01-15T13:07:25;0.70;99.90
73643;DHT22;61938;48.652;9.292;2024-01-15T13:09:51;0.80;99.90
73643;DHT22;61938;48.652;9.292;2024-01-15T13:12:19;0.80;99.90
73643;DHT22;61938;48.652;9.292;2024-01-15T13:14:45;0.70;99.90
73643;DHT22;61938;48.652;9.292;2024-01-15T13:17:11;0.80;99.90
73643;DHT22;61938;48.652;9.292;2024-01-15T13:19:36;0.90;99.90
73643;DHT22;61938;48.652;9.292;2024-01-15T13:22:02;0.70;99.90
73643;DHT22;61938;48.652;9.292;2024-01-15T13:24:32;0.70;99.90
73643;DHT22;61938;48.652;9.292;2024-01-15T13:26:57;0.60;99.90
73643;DHT22;61938;48.652;9.292;2024-01-15T13:29:23;0.70;99.90
73643;DHT22;61938;48.652;9.292;2024-01-15T13:31:48;0.70;99.90
73643;DHT22;61938;48.652;9.292;2024-01-15T13:34:14;0.70;99.90
73643;DHT22;61938;48.652;9.292;2024-01-15T13:36:40;0.80;99.90
73643;DHT22;61938;48.652;9.292;2024-01-15T13:39:06;0.70;99.90
73643;DHT22;61938;48.652;9.292;2024-01-15T13:41:34;0.70;99.90
73643;DHT22;61938;48.652;9.292;2024-01-15T13:44:00;0.70;99.90
73643;DHT22;61938;48.652;9.292;2024-01-15T13:46:26;0.70;99.90
73643;DHT22;61938;48.652;9.292;2024-01-15T13:48:52;0.70;99.90
73643;DHT22;61938;48.652;9.292;2024-01-15T13:51:17;0.70;99.90
73643;DHT22;61938;48.652;9.292;2024-01-15T13:53:43;0.70;99.90
73643;DHT22;61938;48.652;9.292;2024-01-15T13:56:08;0.70;99.90
73643;DHT22;61938;48.652;9.292;2024-01-15T13:58:36;0.70;99.90
73643;DHT22;61938;48.652;9.292;2024-01-15T14:01:02;0.70;99.90
73643;DHT22;61938;48.652;9.292;2024-01-15T14:03:31;0.70;99.90
73643;DHT22;61938;48.652;9.292;2024-01-15T14:05:57;0.70;99.90
73643;DHT22;61938;48.652;9.292;2024-01-15T14:08:23;0.70;99.90
73643;DHT22;61938;48.652;9.292;2024-01-15T14:10:48;0.70;99.90
73643;DHT22;61938;48.652;9.292;2024-01-15T14:13:14;0.70;99.90
73643;DHT22;61938;48.652;9.292;2024-01-15T14:15:40;0.70;99.90
73643;DHT22;61938;48.652;9.292;2024-01-15T14:18:05;0.60;99.90
73643;DHT22;61938;48.652;9.292;2024-01-15T14:20:31;0.70;99.90
73643;DHT22;61938;48.652;9.292;2024-01-15T14:22:56;0.60;99.90
73643;DHT22;61938;48.652;9.292;2024-01-15T14:25:22;0.70;99.90
73643;DHT22;61938;48.652;9.292;2024-01-15T14:27:49;0.70;99.90
73643;DHT22;61938;48.652;9.292;2024-01-15T14:30:15;0.70;99.90
73643;DHT22;61938;48.652;9.292;2024-01-15T14:32:41;0.60;99.90
73643;DHT22;61938;48.652;9.292;2024-01-15T14:35:07;0.70;99.90
73643;DHT22;61938;48.652;9.292;2024-01-15T14:37:39;0.70;99.90
73643;DHT22;61938;48.652;9.292;2024-01-15T14:40:06;0.60;99.90
73643;DHT22;61938;48.652;9.292;2024-01-15T14:42:36;0.70;99.90
73643;DHT22;61938;48.652;9.292;2024-01-15T14:45:05;0.70;99.90
73643;DHT22;61938;48.652;9.292;2024-01-15T14:47:39;0.70;99.90
73643;DHT22;61938;48.652;9.292;2024-01-15T14:50:07;0.70;99.90
73643;DHT22;61938;48.652;9.292;2024-01-15T14:52:33;0.70;99.90
73643;DHT22;61938;48.652;9.292;2024-01-15T14:54:59;0.80;99.90
73643;DHT22;61938;48.652;9.292;2024-01-15T14:57:25;0.60;99.90
73643;DHT22;61938;48.652;9.292;2024-01-15T14:59:50;0.60;99.90
73643;DHT22;61938;48.652;9.292;2024-01-15T15:02:16;0.60;99.90
73643;DHT22;61938;48.652;9.292;2024-01-15T15:04:43;0.60;99.90
73643;DHT22;61938;48.652;9.292;2024-01-15T15:07:08;0.60;99.90
73643;DHT22;61938;48.652;9.292;2024-01-15T15:09:34;0.50;99.90
73643;DHT22;61938;48.652;9.292;2024-01-15T15:12:00;0.50;99.90
73643;DHT22;61938;48.652;9.292;2024-01-15T15:14:25;0.50;99.90
73643;DHT22;61938;48.652;9.292;2024-01-15T15:16:51;0.60;99.90
73643;DHT22;61938;48.652;9.292;2024-01-15T15:19:17;0.50;99.90
73643;DHT22;61938;48.652;9.292;2024-01-15T15:21:44;0.50;99.90
73643;DHT22;61938;48.652;9.292;2024-01-15T15:24:09;0.50;99.90
73643;DHT22;61938;48.652;9.292;2024-01-15T15:26:35;0.50;99.90
73643;DHT22;61938;48.652;9.292;2024-01-15T15:29:02;0.50;99.90
73643;DHT22;61938;48.652;9.292;2024-01-15T15:31:27;0.50;99.90
73643;DHT22;61938;48.652;9.292;2024-01-15T15:33:53;0.40;99.90
73643;DHT22;61938;48.652;9.292;2024-01-15T15:36:19;0.50;99.90
73643;DHT22;61938;48.652;9.292;2024-01-15T15:38:44;0.50;99.90